sensor_id;sensor_type;location;lat;lon;timestamp;P1;durP1;ratioP1;P2;durP2;ratioP2
71655;SDS011;59497;48.798;8.816;2023-07-31T00:00:49;5.93;;;1.27;;
71655;SDS011;59497;48.798;8.816;2023-07-31T00:03:15;1.98;;;1.10;;
71655;SDS011;59497;48.798;8.816;2023-07-31T00:05:40;2.70;;;1.20;;
71655;SDS011;59497;48.798;8.816;2023-07-31T00:08:05;2.57;;;1.00;;
71655;SDS011;59497;48.798;8.816;2023-07-31T00:10:30;2.90;;;1.17;;
71655;SDS011;59497;48.798;8.816;2023-07-31T00:12:55;3.67;;;1.50;;
71655;SDS011;59497;48.798;8.816;2023-07-31T00:15:21;2.27;;;1.20;;
71655;SDS011;59497;48.798;8.816;2023-07-31T00:17:46;3.70;;;0.90;;
71655;SDS011;59497;48.798;8.816;2023-07-31T00:20:12;2.55;;;1.25;;
71655;SDS011;59497;48.798;8.816;2023-07-31T00:22:37;5.47;;;1.20;;
71655;SDS011;59497;48.798;8.816;2023-07-31T00:25:02;4.77;;;1.10;;
71655;SDS011;59497;48.798;8.816;2023-07-31T00:27:29;2.85;;;1.30;;
71655;SDS011;59497;48.798;8.816;2023-07-31T00:29:54;3.77;;;1.30;;
71655;SDS011;59497;48.798;8.816;2023-07-31T00:32:19;2.60;;;1.40;;
71655;SDS011;59497;48.798;8.816;2023-07-31T00:34:44;3.15;;;1.50;;
71655;SDS011;59497;48.798;8.816;2023-07-31T00:37:09;4.85;;;1.40;;
71655;SDS011;59497;48.798;8.816;2023-07-31T00:39:35;2.20;;;1.40;;
71655;SDS011;59497;48.798;8.816;2023-07-31T00:42:00;3.50;;;1.37;;
71655;SDS011;59497;48.798;8.816;2023-07-31T00:44:26;2.43;;;1.40;;
71655;SDS011;59497;48.798;8.816;2023-07-31T00:46:51;4.47;;;1.70;;
71655;SDS011;59497;48.798;8.816;2023-07-31T00:49:16;3.20;;;1.60;;
71655;SDS011;59497;48.798;8.816;2023-07-31T00:51:42;6.03;;;1.40;;
71655;SDS011;59497;48.798;8.816;2023-07-31T00:54:07;4.47;;;1.30;;
71655;SDS011;59497;48.798;8.816;2023-07-31T00:56:32;3.67;;;1.57;;
71655;SDS011;59497;48.798;8.816;2023-07-31T00:58:58;3.50;;;1.35;;
71655;SDS011;59497;48.798;8.816;2023-07-31T01:01:23;1.90;;;1.47;;
71655;SDS011;59497;48.798;8.816;2023-07-31T01:03:49;2.80;;;1.67;;
71655;SDS011;59497;48.798;8.816;2023-07-31T01:08:48;3.80;;;1.47;;
71655;SDS011;59497;48.798;8.816;2023-07-31T01:11:28;1.92;;;1.27;;
71655;SDS011;59497;48.798;8.816;2023-07-31T01:13:56;3.30;;;1.50;;
71655;SDS011;59497;48.798;8.816;2023-07-31T01:16:22;3.70;;;1.40;;
71655;SDS011;59497;48.798;8.816;2023-07-31T01:18:47;3.10;;;1.17;;
71655;SDS011;59497;48.798;8.816;2023-07-31T01:21:19;2.50;;;1.70;;
71655;SDS011;59497;48.798;8.816;2023-07-31T01:26:33;4.25;;;1.30;;
71655;SDS011;59497;48.798;8.816;2023-07-31T01:29:10;2.80;;;1.23;;
71655;SDS011;59497;48.798;8.816;2023-07-31T01:31:37;4.95;;;1.20;;
71655;SDS011;59497;48.798;8.816;2023-07-31T01:34:04;2.30;;;1.08;;
71655;SDS011;59497;48.798;8.816;2023-07-31T01:36:30;4.05;;;1.75;;
71655;SDS011;59497;48.798;8.816;2023-07-31T01:38:59;1.50;;;1.30;;
71655;SDS011;59497;48.798;8.816;2023-07-31T01:41:25;3.95;;;1.50;;
71655;SDS011;59497;48.798;8.816;2023-07-31T01:43:50;3.17;;;1.00;;
71655;SDS011;59497;48.798;8.816;2023-07-31T01:46:15;4.40;;;1.50;;
71655;SDS011;59497;48.798;8.816;2023-07-31T01:48:41;3.80;;;1.30;;
71655;SDS011;59497;48.798;8.816;2023-07-31T01:51:06;3.57;;;1.30;;
71655;SDS011;59497;48.798;8.816;2023-07-31T01:53:31;2.17;;;1.23;;
71655;SDS011;59497;48.798;8.816;2023-07-31T01:55:57;1.77;;;1.42;;
71655;SDS011;59497;48.798;8.816;2023-07-31T01:58:22;3.20;;;1.10;;
71655;SDS011;59497;48.798;8.816;2023-07-31T02:00:47;1.90;;;0.97;;
71655;SDS011;59497;48.798;8.816;2023-07-31T02:03:12;2.40;;;1.50;;
71655;SDS011;59497;48.798;8.816;2023-07-31T02:05:44;3.00;;;1.20;;
71655;SDS011;59497;48.798;8.816;2023-07-31T02:08:09;2.10;;;1.70;;
71655;SDS011;59497;48.798;8.816;2023-07-31T02:10:35;3.73;;;1.40;;
71655;SDS011;59497;48.798;8.816;2023-07-31T02:13:00;3.40;;;1.20;;
71655;SDS011;59497;48.798;8.816;2023-07-31T02:15:25;2.85;;;1.25;;
71655;SDS011;59497;48.798;8.816;2023-07-31T02:17:50;2.77;;;1.40;;
71655;SDS011;59497;48.798;8.816;2023-07-31T02:20:15;2.80;;;1.10;;
71655;SDS011;59497;48.798;8.816;2023-07-31T02:22:41;3.37;;;1.30;;
71655;SDS011;59497;48.798;8.816;2023-07-31T02:25:06;4.00;;;1.03;;
71655;SDS011;59497;48.798;8.816;2023-07-31T02:27:31;4.40;;;1.60;;
71655;SDS011;59497;48.798;8.816;2023-07-31T02:29:56;3.30;;;1.37;;
71655;SDS011;59497;48.798;8.816;2023-07-31T02:32:24;2.50;;;1.30;;
71655;SDS011;59497;48.798;8.816;2023-07-31T02:34:49;5.07;;;1.50;;
71655;SDS011;59497;48.798;8.816;2023-07-31T02:37:14;2.10;;;1.20;;
71655;SDS011;59497;48.798;8.816;2023-07-31T02:39:39;2.67;;;1.37;;
71655;SDS011;59497;48.798;8.816;2023-07-31T02:42:05;3.00;;;1.27;;
71655;SDS011;59497;48.798;8.816;2023-07-31T02:44:30;3.80;;;1.30;;
71655;SDS011;59497;48.798;8.816;2023-07-31T02:46:55;4.67;;;1.20;;
71655;SDS011;59497;48.798;8.816;2023-07-31T02:49:20;4.17;;;1.33;;
71655;SDS011;59497;48.798;8.816;2023-07-31T02:51:45;2.73;;;1.30;;
71655;SDS011;59497;48.798;8.816;2023-07-31T02:54:10;3.27;;;1.50;;
71655;SDS011;59497;48.798;8.816;2023-07-31T02:56:36;2.97;;;1.40;;
71655;SDS011;59497;48.798;8.816;2023-07-31T02:59:01;3.53;;;1.30;;
71655;SDS011;59497;48.798;8.816;2023-07-31T03:01:26;3.50;;;1.47;;
71655;SDS011;59497;48.798;8.816;2023-07-31T03:03:51;4.20;;;1.30;;
71655;SDS011;59497;48.798;8.816;2023-07-31T03:06:16;1.50;;;1.30;;
71655;SDS011;59497;48.798;8.816;2023-07-31T03:08:41;2.53;;;1.50;;
71655;SDS011;59497;48.798;8.816;2023-07-31T03:11:07;3.67;;;1.00;;
71655;SDS011;59497;48.798;8.816;2023-07-31T03:13:32;1.77;;;1.33;;
71655;SDS011;59497;48.798;8.816;2023-07-31T03:15:57;2.63;;;1.20;;
71655;SDS011;59497;48.798;8.816;2023-07-31T03:18:22;3.13;;;1.20;;
71655;SDS011;59497;48.798;8.816;2023-07-31T03:20:47;3.80;;;1.57;;
71655;SDS011;59497;48.798;8.816;2023-07-31T03:23:13;2.60;;;1.17;;
71655;SDS011;59497;48.798;8.816;2023-07-31T03:25:38;4.10;;;1.40;;
71655;SDS011;59497;48.798;8.816;2023-07-31T03:28:03;2.90;;;1.40;;
71655;SDS011;59497;48.798;8.816;2023-07-31T03:30:28;3.83;;;1.13;;
71655;SDS011;59497;48.798;8.816;2023-07-31T03:32:54;2.45;;;1.75;;
71655;SDS011;59497;48.798;8.816;2023-07-31T03:35:19;4.17;;;1.17;;
71655;SDS011;59497;48.798;8.816;2023-07-31T03:37:44;4.63;;;1.53;;
71655;SDS011;59497;48.798;8.816;2023-07-31T03:40:09;3.83;;;1.63;;
71655;SDS011;59497;48.798;8.816;2023-07-31T03:42:35;4.03;;;1.70;;
71655;SDS011;59497;48.798;8.816;2023-07-31T03:45:00;4.70;;;1.40;;
71655;SDS011;59497;48.798;8.816;2023-07-31T03:47:25;2.60;;;1.37;;
71655;SDS011;59497;48.798;8.816;2023-07-31T03:49:51;2.03;;;1.20;;
71655;SDS011;59497;48.798;8.816;2023-07-31T03:52:16;3.87;;;0.90;;
71655;SDS011;59497;48.798;8.816;2023-07-31T03:54:41;3.63;;;1.40;;
71655;SDS011;59497;48.798;8.816;2023-07-31T03:57:06;3.13;;;1.40;;
71655;SDS011;59497;48.798;8.816;2023-07-31T03:59:31;2.40;;;1.10;;
71655;SDS011;59497;48.798;8.816;2023-07-31T04:01:56;3.93;;;1.40;;
71655;SDS011;59497;48.798;8.816;2023-07-31T04:04:22;3.20;;;1.83;;
71655;SDS011;59497;48.798;8.816;2023-07-31T04:06:47;2.80;;;1.50;;
71655;SDS011;59497;48.798;8.816;2023-07-31T04:09:12;3.83;;;1.40;;
71655;SDS011;59497;48.798;8.816;2023-07-31T04:11:37;3.30;;;1.40;;
71655;SDS011;59497;48.798;8.816;2023-07-31T04:14:04;2.70;;;1.30;;
71655;SDS011;59497;48.798;8.816;2023-07-31T04:16:29;5.17;;;1.73;;
71655;SDS011;59497;48.798;8.816;2023-07-31T04:18:54;3.60;;;1.40;;
71655;SDS011;59497;48.798;8.816;2023-07-31T04:21:19;2.37;;;0.90;;
71655;SDS011;59497;48.798;8.816;2023-07-31T04:23:44;2.93;;;1.50;;
71655;SDS011;59497;48.798;8.816;2023-07-31T04:26:10;3.07;;;1.20;;
71655;SDS011;59497;48.798;8.816;2023-07-31T04:28:35;3.27;;;1.57;;
71655;SDS011;59497;48.798;8.816;2023-07-31T04:31:00;3.13;;;1.57;;
71655;SDS011;59497;48.798;8.816;2023-07-31T04:33:25;2.40;;;1.07;;
71655;SDS011;59497;48.798;8.816;2023-07-31T04:35:51;1.77;;;1.10;;
71655;SDS011;59497;48.798;8.816;2023-07-31T04:38:17;4.32;;;1.38;;
71655;SDS011;59497;48.798;8.816;2023-07-31T04:40:42;5.07;;;1.53;;
71655;SDS011;59497;48.798;8.816;2023-07-31T04:43:07;3.63;;;1.43;;
71655;SDS011;59497;48.798;8.816;2023-07-31T04:45:32;4.07;;;1.70;;
71655;SDS011;59497;48.798;8.816;2023-07-31T04:47:58;2.10;;;1.60;;
71655;SDS011;59497;48.798;8.816;2023-07-31T04:50:23;2.87;;;1.33;;
71655;SDS011;59497;48.798;8.816;2023-07-31T04:52:48;4.00;;;1.30;;
71655;SDS011;59497;48.798;8.816;2023-07-31T04:55:13;2.93;;;1.53;;
71655;SDS011;59497;48.798;8.816;2023-07-31T04:57:38;2.87;;;1.20;;
71655;SDS011;59497;48.798;8.816;2023-07-31T05:00:04;2.50;;;1.50;;
71655;SDS011;59497;48.798;8.816;2023-07-31T05:02:29;4.47;;;1.47;;
71655;SDS011;59497;48.798;8.816;2023-07-31T05:04:54;3.33;;;1.43;;
71655;SDS011;59497;48.798;8.816;2023-07-31T05:07:19;2.40;;;1.50;;
71655;SDS011;59497;48.798;8.816;2023-07-31T05:09:45;6.47;;;1.67;;
71655;SDS011;59497;48.798;8.816;2023-07-31T05:12:10;3.80;;;2.10;;
71655;SDS011;59497;48.798;8.816;2023-07-31T05:14:35;3.63;;;1.60;;
71655;SDS011;59497;48.798;8.816;2023-07-31T05:17:00;3.10;;;1.20;;
71655;SDS011;59497;48.798;8.816;2023-07-31T05:19:25;3.93;;;1.20;;
71655;SDS011;59497;48.798;8.816;2023-07-31T05:21:51;3.03;;;1.53;;
71655;SDS011;59497;48.798;8.816;2023-07-31T05:24:16;2.50;;;1.67;;
71655;SDS011;59497;48.798;8.816;2023-07-31T05:26:41;4.87;;;1.40;;
71655;SDS011;59497;48.798;8.816;2023-07-31T05:29:06;4.10;;;1.30;;
71655;SDS011;59497;48.798;8.816;2023-07-31T05:31:31;3.63;;;1.20;;
71655;SDS011;59497;48.798;8.816;2023-07-31T05:33:57;3.27;;;1.50;;
71655;SDS011;59497;48.798;8.816;2023-07-31T05:36:22;1.87;;;1.20;;
71655;SDS011;59497;48.798;8.816;2023-07-31T05:38:47;2.07;;;1.37;;
71655;SDS011;59497;48.798;8.816;2023-07-31T05:41:13;4.00;;;1.70;;
71655;SDS011;59497;48.798;8.816;2023-07-31T05:43:38;3.70;;;1.73;;
71655;SDS011;59497;48.798;8.816;2023-07-31T05:46:03;3.17;;;1.30;;
71655;SDS011;59497;48.798;8.816;2023-07-31T05:48:28;3.17;;;1.60;;
71655;SDS011;59497;48.798;8.816;2023-07-31T05:50:53;3.57;;;1.30;;
71655;SDS011;59497;48.798;8.816;2023-07-31T05:53:19;6.00;;;1.60;;
71655;SDS011;59497;48.798;8.816;2023-07-31T05:55:44;3.83;;;1.33;;
71655;SDS011;59497;48.798;8.816;2023-07-31T05:58:09;2.83;;;1.23;;
71655;SDS011;59497;48.798;8.816;2023-07-31T06:00:34;3.60;;;1.50;;
71655;SDS011;59497;48.798;8.816;2023-07-31T06:03:00;1.67;;;1.20;;
71655;SDS011;59497;48.798;8.816;2023-07-31T06:05:25;2.73;;;1.40;;
71655;SDS011;59497;48.798;8.816;2023-07-31T06:07:51;2.60;;;1.27;;
71655;SDS011;59497;48.798;8.816;2023-07-31T06:10:16;3.43;;;1.53;;
71655;SDS011;59497;48.798;8.816;2023-07-31T06:12:41;3.07;;;1.63;;
71655;SDS011;59497;48.798;8.816;2023-07-31T06:15:06;2.30;;;1.30;;
71655;SDS011;59497;48.798;8.816;2023-07-31T06:17:32;2.53;;;1.63;;
71655;SDS011;59497;48.798;8.816;2023-07-31T06:19:57;3.10;;;1.70;;
71655;SDS011;59497;48.798;8.816;2023-07-31T06:22:22;4.77;;;1.53;;
71655;SDS011;59497;48.798;8.816;2023-07-31T06:24:47;2.83;;;1.63;;
71655;SDS011;59497;48.798;8.816;2023-07-31T06:27:13;2.67;;;1.77;;
71655;SDS011;59497;48.798;8.816;2023-07-31T06:29:38;2.70;;;1.63;;
71655;SDS011;59497;48.798;8.816;2023-07-31T06:32:03;2.50;;;1.47;;
71655;SDS011;59497;48.798;8.816;2023-07-31T06:34:28;3.67;;;1.27;;
71655;SDS011;59497;48.798;8.816;2023-07-31T06:36:54;2.87;;;1.13;;
71655;SDS011;59497;48.798;8.816;2023-07-31T06:39:20;3.15;;;1.20;;
71655;SDS011;59497;48.798;8.816;2023-07-31T06:41:45;3.33;;;1.30;;
71655;SDS011;59497;48.798;8.816;2023-07-31T06:44:10;3.07;;;1.53;;
71655;SDS011;59497;48.798;8.816;2023-07-31T06:46:36;1.77;;;1.30;;
71655;SDS011;59497;48.798;8.816;2023-07-31T06:49:01;2.17;;;1.53;;
71655;SDS011;59497;48.798;8.816;2023-07-31T06:51:26;3.67;;;1.50;;
71655;SDS011;59497;48.798;8.816;2023-07-31T06:53:51;2.57;;;1.30;;
71655;SDS011;59497;48.798;8.816;2023-07-31T06:56:16;4.80;;;1.60;;
71655;SDS011;59497;48.798;8.816;2023-07-31T06:58:42;4.93;;;1.83;;
71655;SDS011;59497;48.798;8.816;2023-07-31T07:01:07;3.13;;;1.87;;
71655;SDS011;59497;48.798;8.816;2023-07-31T07:03:32;6.40;;;1.50;;
71655;SDS011;59497;48.798;8.816;2023-07-31T07:05:57;4.33;;;1.80;;
71655;SDS011;59497;48.798;8.816;2023-07-31T07:08:23;2.50;;;1.73;;
71655;SDS011;59497;48.798;8.816;2023-07-31T07:10:48;3.53;;;1.58;;
71655;SDS011;59497;48.798;8.816;2023-07-31T07:13:14;3.00;;;1.53;;
71655;SDS011;59497;48.798;8.816;2023-07-31T07:15:39;3.80;;;1.77;;
71655;SDS011;59497;48.798;8.816;2023-07-31T07:18:04;2.83;;;1.67;;
71655;SDS011;59497;48.798;8.816;2023-07-31T07:20:29;3.67;;;1.60;;
71655;SDS011;59497;48.798;8.816;2023-07-31T07:22:54;5.47;;;1.40;;
71655;SDS011;59497;48.798;8.816;2023-07-31T07:25:20;4.23;;;1.50;;
71655;SDS011;59497;48.798;8.816;2023-07-31T07:27:45;4.27;;;1.80;;
71655;SDS011;59497;48.798;8.816;2023-07-31T07:30:10;3.60;;;1.50;;
71655;SDS011;59497;48.798;8.816;2023-07-31T07:32:35;2.57;;;1.07;;
71655;SDS011;59497;48.798;8.816;2023-07-31T07:35:01;3.83;;;1.90;;
71655;SDS011;59497;48.798;8.816;2023-07-31T07:37:26;2.95;;;1.50;;
71655;SDS011;59497;48.798;8.816;2023-07-31T07:39:51;3.37;;;1.80;;
71655;SDS011;59497;48.798;8.816;2023-07-31T07:42:16;3.00;;;1.73;;
71655;SDS011;59497;48.798;8.816;2023-07-31T07:44:41;3.57;;;1.97;;
71655;SDS011;59497;48.798;8.816;2023-07-31T07:47:07;3.53;;;1.67;;
71655;SDS011;59497;48.798;8.816;2023-07-31T07:49:33;5.00;;;2.17;;
71655;SDS011;59497;48.798;8.816;2023-07-31T07:51:58;3.93;;;1.43;;
71655;SDS011;59497;48.798;8.816;2023-07-31T07:54:23;3.47;;;1.43;;
71655;SDS011;59497;48.798;8.816;2023-07-31T07:56:48;4.23;;;1.70;;
71655;SDS011;59497;48.798;8.816;2023-07-31T07:59:14;3.05;;;1.80;;
71655;SDS011;59497;48.798;8.816;2023-07-31T08:01:40;3.27;;;1.70;;
71655;SDS011;59497;48.798;8.816;2023-07-31T08:04:05;4.50;;;1.63;;
71655;SDS011;59497;48.798;8.816;2023-07-31T08:06:30;3.67;;;1.57;;
71655;SDS011;59497;48.798;8.816;2023-07-31T08:08:55;3.63;;;1.70;;
71655;SDS011;59497;48.798;8.816;2023-07-31T08:11:20;3.43;;;1.37;;
71655;SDS011;59497;48.798;8.816;2023-07-31T08:13:48;3.88;;;2.17;;
71655;SDS011;59497;48.798;8.816;2023-07-31T08:16:13;3.03;;;1.60;;
71655;SDS011;59497;48.798;8.816;2023-07-31T08:18:38;5.40;;;2.13;;
71655;SDS011;59497;48.798;8.816;2023-07-31T08:21:05;3.20;;;1.52;;
71655;SDS011;59497;48.798;8.816;2023-07-31T08:23:30;3.47;;;1.67;;
71655;SDS011;59497;48.798;8.816;2023-07-31T08:25:55;4.20;;;1.40;;
71655;SDS011;59497;48.798;8.816;2023-07-31T08:28:20;3.00;;;1.30;;
71655;SDS011;59497;48.798;8.816;2023-07-31T08:30:45;3.00;;;1.90;;
71655;SDS011;59497;48.798;8.816;2023-07-31T08:33:11;5.73;;;1.83;;
71655;SDS011;59497;48.798;8.816;2023-07-31T08:35:36;3.03;;;2.20;;
71655;SDS011;59497;48.798;8.816;2023-07-31T08:38:01;3.33;;;2.13;;
71655;SDS011;59497;48.798;8.816;2023-07-31T08:40:26;2.93;;;1.83;;
71655;SDS011;59497;48.798;8.816;2023-07-31T08:42:53;5.88;;;2.08;;
71655;SDS011;59497;48.798;8.816;2023-07-31T08:45:19;4.07;;;2.03;;
71655;SDS011;59497;48.798;8.816;2023-07-31T08:47:48;2.78;;;1.98;;
71655;SDS011;59497;48.798;8.816;2023-07-31T08:50:14;5.78;;;2.00;;
71655;SDS011;59497;48.798;8.816;2023-07-31T08:52:40;7.87;;;2.13;;
71655;SDS011;59497;48.798;8.816;2023-07-31T08:55:05;2.20;;;1.60;;
71655;SDS011;59497;48.798;8.816;2023-07-31T08:57:31;5.97;;;1.80;;
71655;SDS011;59497;48.798;8.816;2023-07-31T08:59:56;4.33;;;2.13;;
71655;SDS011;59497;48.798;8.816;2023-07-31T09:02:22;3.13;;;2.07;;
71655;SDS011;59497;48.798;8.816;2023-07-31T09:04:48;6.80;;;2.00;;
71655;SDS011;59497;48.798;8.816;2023-07-31T09:07:13;4.20;;;2.13;;
71655;SDS011;59497;48.798;8.816;2023-07-31T09:09:40;3.92;;;1.90;;
71655;SDS011;59497;48.798;8.816;2023-07-31T09:12:05;3.80;;;1.73;;
71655;SDS011;59497;48.798;8.816;2023-07-31T09:14:30;3.67;;;1.93;;
71655;SDS011;59497;48.798;8.816;2023-07-31T09:16:57;4.87;;;1.40;;
71655;SDS011;59497;48.798;8.816;2023-07-31T09:19:32;5.43;;;2.15;;
71655;SDS011;59497;48.798;8.816;2023-07-31T09:21:58;3.20;;;1.90;;
71655;SDS011;59497;48.798;8.816;2023-07-31T09:24:27;5.60;;;2.40;;
71655;SDS011;59497;48.798;8.816;2023-07-31T09:26:54;4.55;;;1.65;;
71655;SDS011;59497;48.798;8.816;2023-07-31T09:29:19;7.00;;;1.95;;
71655;SDS011;59497;48.798;8.816;2023-07-31T09:31:45;6.27;;;1.90;;
71655;SDS011;59497;48.798;8.816;2023-07-31T09:34:10;3.97;;;1.60;;
71655;SDS011;59497;48.798;8.816;2023-07-31T09:36:45;4.45;;;2.05;;
71655;SDS011;59497;48.798;8.816;2023-07-31T09:39:11;4.40;;;2.20;;
71655;SDS011;59497;48.798;8.816;2023-07-31T09:41:40;3.70;;;1.80;;
71655;SDS011;59497;48.798;8.816;2023-07-31T09:44:06;5.70;;;2.05;;
71655;SDS011;59497;48.798;8.816;2023-07-31T09:46:31;5.20;;;1.83;;
71655;SDS011;59497;48.798;8.816;2023-07-31T09:49:09;5.70;;;2.10;;
71655;SDS011;59497;48.798;8.816;2023-07-31T09:51:35;5.00;;;1.88;;
71655;SDS011;59497;48.798;8.816;2023-07-31T09:54:03;4.68;;;2.33;;
71655;SDS011;59497;48.798;8.816;2023-07-31T09:56:29;2.60;;;1.60;;
71655;SDS011;59497;48.798;8.816;2023-07-31T09:58:54;4.60;;;1.65;;
71655;SDS011;59497;48.798;8.816;2023-07-31T10:01:20;4.22;;;2.17;;
71655;SDS011;59497;48.798;8.816;2023-07-31T10:03:45;3.50;;;2.40;;
71655;SDS011;59497;48.798;8.816;2023-07-31T10:06:11;3.70;;;2.57;;
71655;SDS011;59497;48.798;8.816;2023-07-31T10:08:36;4.73;;;2.20;;
71655;SDS011;59497;48.798;8.816;2023-07-31T10:11:02;5.00;;;2.57;;
71655;SDS011;59497;48.798;8.816;2023-07-31T10:13:28;4.20;;;2.20;;
71655;SDS011;59497;48.798;8.816;2023-07-31T10:15:54;5.07;;;1.93;;
71655;SDS011;59497;48.798;8.816;2023-07-31T10:18:19;3.15;;;1.83;;
71655;SDS011;59497;48.798;8.816;2023-07-31T10:20:45;4.10;;;2.30;;
71655;SDS011;59497;48.798;8.816;2023-07-31T10:23:11;4.18;;;2.22;;
71655;SDS011;59497;48.798;8.816;2023-07-31T10:25:36;4.97;;;2.17;;
71655;SDS011;59497;48.798;8.816;2023-07-31T10:28:02;7.22;;;2.22;;
71655;SDS011;59497;48.798;8.816;2023-07-31T10:30:30;3.23;;;2.20;;
71655;SDS011;59497;48.798;8.816;2023-07-31T10:32:57;4.77;;;2.20;;
71655;SDS011;59497;48.798;8.816;2023-07-31T10:35:23;6.55;;;3.05;;
71655;SDS011;59497;48.798;8.816;2023-07-31T10:37:48;4.23;;;2.00;;
71655;SDS011;59497;48.798;8.816;2023-07-31T10:40:17;5.87;;;2.43;;
71655;SDS011;59497;48.798;8.816;2023-07-31T10:45:13;3.38;;;2.10;;
71655;SDS011;59497;48.798;8.816;2023-07-31T10:47:45;3.33;;;2.17;;
71655;SDS011;59497;48.798;8.816;2023-07-31T10:50:10;7.47;;;2.72;;
71655;SDS011;59497;48.798;8.816;2023-07-31T10:52:36;3.90;;;2.97;;
71655;SDS011;59497;48.798;8.816;2023-07-31T10:55:14;6.33;;;2.87;;
71655;SDS011;59497;48.798;8.816;2023-07-31T10:57:39;5.40;;;2.85;;
71655;SDS011;59497;48.798;8.816;2023-07-31T11:00:20;4.87;;;2.57;;
71655;SDS011;59497;48.798;8.816;2023-07-31T11:02:55;4.70;;;2.38;;
71655;SDS011;59497;48.798;8.816;2023-07-31T11:05:21;4.30;;;2.53;;
71655;SDS011;59497;48.798;8.816;2023-07-31T11:07:47;4.40;;;2.67;;
71655;SDS011;59497;48.798;8.816;2023-07-31T11:10:15;6.23;;;2.23;;
71655;SDS011;59497;48.798;8.816;2023-07-31T11:12:41;3.83;;;2.15;;
71655;SDS011;59497;48.798;8.816;2023-07-31T11:15:06;5.23;;;3.20;;
71655;SDS011;59497;48.798;8.816;2023-07-31T11:17:31;3.42;;;2.50;;
71655;SDS011;59497;48.798;8.816;2023-07-31T11:19:56;4.77;;;3.07;;
71655;SDS011;59497;48.798;8.816;2023-07-31T11:22:22;4.55;;;3.05;;
71655;SDS011;59497;48.798;8.816;2023-07-31T11:24:47;3.47;;;3.10;;
71655;SDS011;59497;48.798;8.816;2023-07-31T11:27:12;6.60;;;3.37;;
71655;SDS011;59497;48.798;8.816;2023-07-31T11:29:37;5.40;;;2.35;;
71655;SDS011;59497;48.798;8.816;2023-07-31T11:32:02;3.87;;;2.67;;
71655;SDS011;59497;48.798;8.816;2023-07-31T11:34:28;3.67;;;1.90;;
71655;SDS011;59497;48.798;8.816;2023-07-31T11:36:55;2.73;;;1.90;;
71655;SDS011;59497;48.798;8.816;2023-07-31T11:39:21;4.45;;;2.40;;
71655;SDS011;59497;48.798;8.816;2023-07-31T11:41:46;5.80;;;2.00;;
71655;SDS011;59497;48.798;8.816;2023-07-31T11:44:12;6.60;;;2.03;;
71655;SDS011;59497;48.798;8.816;2023-07-31T11:46:37;7.23;;;2.93;;
71655;SDS011;59497;48.798;8.816;2023-07-31T11:49:03;5.57;;;2.67;;
71655;SDS011;59497;48.798;8.816;2023-07-31T11:51:29;4.13;;;2.47;;
71655;SDS011;59497;48.798;8.816;2023-07-31T11:53:57;6.37;;;2.87;;
71655;SDS011;59497;48.798;8.816;2023-07-31T11:56:23;3.92;;;1.75;;
71655;SDS011;59497;48.798;8.816;2023-07-31T11:58:50;5.13;;;2.15;;
71655;SDS011;59497;48.798;8.816;2023-07-31T12:01:17;2.97;;;2.25;;
71655;SDS011;59497;48.798;8.816;2023-07-31T12:03:43;4.10;;;2.40;;
71655;SDS011;59497;48.798;8.816;2023-07-31T12:06:08;3.33;;;2.03;;
71655;SDS011;59497;48.798;8.816;2023-07-31T12:08:34;4.20;;;2.70;;
71655;SDS011;59497;48.798;8.816;2023-07-31T12:11:03;5.23;;;2.90;;
71655;SDS011;59497;48.798;8.816;2023-07-31T12:13:28;3.15;;;1.90;;
71655;SDS011;59497;48.798;8.816;2023-07-31T12:15:56;4.40;;;2.40;;
71655;SDS011;59497;48.798;8.816;2023-07-31T12:18:22;3.58;;;2.38;;
71655;SDS011;59497;48.798;8.816;2023-07-31T12:20:48;3.90;;;2.75;;
71655;SDS011;59497;48.798;8.816;2023-07-31T12:23:15;3.83;;;2.35;;
71655;SDS011;59497;48.798;8.816;2023-07-31T12:25:40;6.43;;;2.57;;
71655;SDS011;59497;48.798;8.816;2023-07-31T12:28:05;3.13;;;2.33;;
71655;SDS011;59497;48.798;8.816;2023-07-31T12:30:37;3.13;;;2.10;;
71655;SDS011;59497;48.798;8.816;2023-07-31T12:33:03;3.53;;;2.25;;
71655;SDS011;59497;48.798;8.816;2023-07-31T12:35:34;4.85;;;2.78;;
71655;SDS011;59497;48.798;8.816;2023-07-31T12:38:01;4.75;;;2.38;;
71655;SDS011;59497;48.798;8.816;2023-07-31T12:40:26;5.83;;;2.90;;
71655;SDS011;59497;48.798;8.816;2023-07-31T12:42:51;6.30;;;2.53;;
71655;SDS011;59497;48.798;8.816;2023-07-31T12:45:17;3.40;;;2.38;;
71655;SDS011;59497;48.798;8.816;2023-07-31T12:47:42;3.67;;;2.40;;
71655;SDS011;59497;48.798;8.816;2023-07-31T12:50:07;4.53;;;2.67;;
71655;SDS011;59497;48.798;8.816;2023-07-31T12:52:32;4.27;;;2.93;;
71655;SDS011;59497;48.798;8.816;2023-07-31T12:54:58;3.67;;;2.27;;
71655;SDS011;59497;48.798;8.816;2023-07-31T12:57:23;4.03;;;2.53;;
71655;SDS011;59497;48.798;8.816;2023-07-31T12:59:49;4.70;;;3.20;;
71655;SDS011;59497;48.798;8.816;2023-07-31T13:02:14;3.63;;;2.83;;
71655;SDS011;59497;48.798;8.816;2023-07-31T13:04:39;3.00;;;2.70;;
71655;SDS011;59497;48.798;8.816;2023-07-31T13:07:04;4.17;;;2.47;;
71655;SDS011;59497;48.798;8.816;2023-07-31T13:09:29;5.23;;;2.23;;
71655;SDS011;59497;48.798;8.816;2023-07-31T13:11:55;4.00;;;3.37;;
71655;SDS011;59497;48.798;8.816;2023-07-31T13:14:20;3.60;;;2.95;;
71655;SDS011;59497;48.798;8.816;2023-07-31T13:16:45;4.75;;;2.75;;
71655;SDS011;59497;48.798;8.816;2023-07-31T13:19:10;2.77;;;2.13;;
71655;SDS011;59497;48.798;8.816;2023-07-31T13:21:35;3.23;;;2.13;;
71655;SDS011;59497;48.798;8.816;2023-07-31T13:24:01;3.30;;;2.23;;
71655;SDS011;59497;48.798;8.816;2023-07-31T13:26:27;2.10;;;1.90;;
71655;SDS011;59497;48.798;8.816;2023-07-31T13:28:52;3.33;;;2.90;;
71655;SDS011;59497;48.798;8.816;2023-07-31T13:31:17;4.60;;;2.10;;
71655;SDS011;59497;48.798;8.816;2023-07-31T13:33:42;4.25;;;2.95;;
71655;SDS011;59497;48.798;8.816;2023-07-31T13:36:07;4.10;;;2.70;;
71655;SDS011;59497;48.798;8.816;2023-07-31T13:38:33;4.00;;;2.70;;
71655;SDS011;59497;48.798;8.816;2023-07-31T13:40:58;4.43;;;2.40;;
71655;SDS011;59497;48.798;8.816;2023-07-31T13:43:23;3.70;;;2.13;;
71655;SDS011;59497;48.798;8.816;2023-07-31T13:45:49;4.57;;;2.23;;
71655;SDS011;59497;48.798;8.816;2023-07-31T13:48:14;3.87;;;2.30;;
71655;SDS011;59497;48.798;8.816;2023-07-31T13:50:39;5.47;;;3.17;;
71655;SDS011;59497;48.798;8.816;2023-07-31T13:53:04;4.03;;;2.73;;
71655;SDS011;59497;48.798;8.816;2023-07-31T13:55:29;5.00;;;2.80;;
71655;SDS011;59497;48.798;8.816;2023-07-31T13:57:54;5.33;;;2.37;;
71655;SDS011;59497;48.798;8.816;2023-07-31T14:00:20;4.23;;;2.43;;
71655;SDS011;59497;48.798;8.816;2023-07-31T14:02:45;3.27;;;2.93;;
71655;SDS011;59497;48.798;8.816;2023-07-31T14:05:10;5.30;;;2.83;;
71655;SDS011;59497;48.798;8.816;2023-07-31T14:07:35;3.50;;;2.57;;
71655;SDS011;59497;48.798;8.816;2023-07-31T14:10:01;5.13;;;3.33;;
71655;SDS011;59497;48.798;8.816;2023-07-31T14:12:26;3.33;;;3.03;;
71655;SDS011;59497;48.798;8.816;2023-07-31T14:14:51;2.80;;;2.20;;
71655;SDS011;59497;48.798;8.816;2023-07-31T14:17:16;3.73;;;2.20;;
71655;SDS011;59497;48.798;8.816;2023-07-31T14:19:41;4.07;;;3.13;;
71655;SDS011;59497;48.798;8.816;2023-07-31T14:22:07;2.77;;;2.40;;
71655;SDS011;59497;48.798;8.816;2023-07-31T14:24:32;3.23;;;2.67;;
71655;SDS011;59497;48.798;8.816;2023-07-31T14:26:57;3.07;;;2.30;;
71655;SDS011;59497;48.798;8.816;2023-07-31T14:29:22;3.80;;;2.53;;
71655;SDS011;59497;48.798;8.816;2023-07-31T14:31:49;3.20;;;2.03;;
71655;SDS011;59497;48.798;8.816;2023-07-31T14:34:14;3.27;;;2.00;;
71655;SDS011;59497;48.798;8.816;2023-07-31T14:36:40;3.85;;;2.38;;
71655;SDS011;59497;48.798;8.816;2023-07-31T14:39:06;4.00;;;2.43;;
71655;SDS011;59497;48.798;8.816;2023-07-31T14:41:31;3.13;;;2.07;;
71655;SDS011;59497;48.798;8.816;2023-07-31T14:43:56;4.67;;;2.40;;
71655;SDS011;59497;48.798;8.816;2023-07-31T14:46:21;2.90;;;1.70;;